createdAt,value
2022-08-14T00:02:01.518Z,76.20
2022-08-14T00:04:32.092Z,76.10
2022-08-14T00:07:14.139Z,76.30
2022-08-14T00:10:01.881Z,75.90
2022-08-14T00:12:48.154Z,76.30
2022-08-14T00:15:25.464Z,76.00
2022-08-14T00:17:58.229Z,76.30
2022-08-14T00:20:31.101Z,76.50
2022-08-14T00:23:12.505Z,76.90
2022-08-14T00:25:54.037Z,77.20
2022-08-14T00:28:35.186Z,76.90
2022-08-14T00:31:04.913Z,77.30
2022-08-14T00:33:52.247Z,78.00
2022-08-14T00:36:35.797Z,78.40
2022-08-14T00:39:18.229Z,78.50
2022-08-14T00:41:46.925Z,79.00
2022-08-14T00:44:26.590Z,78.50
2022-08-14T00:47:01.471Z,79.40
2022-08-14T00:49:31.056Z,80.00
2022-08-14T00:52:07.021Z,80.80
2022-08-14T00:54:38.759Z,80.70
2022-08-14T00:57:08.571Z,80.70
2022-08-14T00:59:37.135Z,80.90
2022-08-14T01:02:09.418Z,81.00
2022-08-14T01:04:53.716Z,80.80
2022-08-14T01:07:23.672Z,80.90
2022-08-14T01:09:54.800Z,81.10
2022-08-14T01:12:27.019Z,81.40
2022-08-14T01:14:59.197Z,81.90
2022-08-14T01:17:50.715Z,82.40
2022-08-14T01:20:39.879Z,82.30
2022-08-14T01:23:16.046Z,82.90
2022-08-14T01:25:48.477Z,82.80
2022-08-14T01:28:34.276Z,82.80
2022-08-14T01:31:12.202Z,83.00
2022-08-14T01:33:44.693Z,83.00
2022-08-14T01:36:36.579Z,83.10
2022-08-14T01:39:12.673Z,84.10
2022-08-14T01:41:42.465Z,85.50
2022-08-14T01:44:33.562Z,85.80
2022-08-14T01:47:19.598Z,85.70
2022-08-14T01:49:59.653Z,86.00
2022-08-14T01:52:34.559Z,87.00
2022-08-14T01:55:23.192Z,86.40
2022-08-14T01:58:18.107Z,86.50
2022-08-14T02:00:40.033Z,86.40
2022-08-14T02:03:08.889Z,86.20
2022-08-14T02:05:38.914Z,86.00
2022-08-14T02:08:08.914Z,86.00
2022-08-14T02:10:46.710Z,86.60
2022-08-14T02:13:16.908Z,86.80
2022-08-14T02:15:48.376Z,86.80
2022-08-14T02:18:18.206Z,87.10
2022-08-14T02:20:48.953Z,87.10
2022-08-14T02:23:28.961Z,87.40
2022-08-14T02:26:24.036Z,87.90
2022-08-14T02:28:56.900Z,88.60
2022-08-14T02:31:42.607Z,88.40
2022-08-14T02:34:22.451Z,88.60
2022-08-14T02:37:06.128Z,88.70
2022-08-14T02:39:37.286Z,88.60
2022-08-14T02:42:13.384Z,88.50
2022-08-14T02:44:49.152Z,89.10
2022-08-14T02:47:21.097Z,89.10
2022-08-14T02:49:54.876Z,88.30
2022-08-14T02:52:55.589Z,89.30
2022-08-14T02:55:19.769Z,90.00
2022-08-14T02:57:57.973Z,89.80
2022-08-14T03:00:33.452Z,90.00
2022-08-14T03:03:03.363Z,90.30
2022-08-14T03:05:41.637Z,90.30
2022-08-14T03:08:16.213Z,90.70
2022-08-14T03:10:49.293Z,90.60
2022-08-14T03:13:21.084Z,90.70
2022-08-14T03:15:55.665Z,90.60
2022-08-14T03:18:30.620Z,90.70
2022-08-14T03:21:02.236Z,90.60
2022-08-14T03:23:36.326Z,90.50
2022-08-14T03:26:08.701Z,90.90
2022-08-14T03:28:43.668Z,91.40
2022-08-14T03:31:13.620Z,90.90
2022-08-14T03:33:45.471Z,90.70
2022-08-14T03:37:29.684Z,90.90
2022-08-14T03:39:21.298Z,91.00
2022-08-14T03:41:52.435Z,90.80
2022-08-14T03:45:19.340Z,90.70
2022-08-14T03:47:11.634Z,90.80
2022-08-14T03:49:42.321Z,90.40
2022-08-14T03:52:37.908Z,90.40
2022-08-14T03:55:00.430Z,90.50
2022-08-14T03:57:32.941Z,90.70
2022-08-14T04:00:13.900Z,90.70
2022-08-14T04:02:59.175Z,90.70
2022-08-14T04:05:27.159Z,90.70
2022-08-14T04:08:08.244Z,90.90
2022-08-14T04:10:38.488Z,91.00
2022-08-14T04:13:07.634Z,91.00
2022-08-14T04:15:55.907Z,91.10
2022-08-14T04:18:25.353Z,91.10
2022-08-14T04:20:54.890Z,91.20
2022-08-14T04:23:29.987Z,91.30
2022-08-14T04:26:03.282Z,91.30
2022-08-14T04:29:05.460Z,91.30
2022-08-14T04:32:56.775Z,91.40
2022-08-14T04:34:20.568Z,91.60
2022-08-14T04:37:10.692Z,91.50
2022-08-14T04:39:57.904Z,92.10
2022-08-14T04:42:47.460Z,91.90
2022-08-14T04:45:21.837Z,91.90
2022-08-14T04:48:10.082Z,92.00
2022-08-14T04:50:44.587Z,91.90
2022-08-14T04:53:23.236Z,91.90
2022-08-14T04:55:55.045Z,91.90
2022-08-14T04:58:32.829Z,92.10
2022-08-14T05:01:03.335Z,92.30
2022-08-14T05:03:35.632Z,92.30
2022-08-14T05:06:38.185Z,92.40
2022-08-14T05:08:59.648Z,92.60
2022-08-14T05:11:33.437Z,92.60
2022-08-14T05:14:34.186Z,92.80
2022-08-14T05:16:53.664Z,92.90
2022-08-14T05:19:29.441Z,93.10
2022-08-14T05:22:16.035Z,93.10
2022-08-14T05:24:48.669Z,92.90
2022-08-14T05:27:23.153Z,92.90
2022-08-14T05:29:53.794Z,93.00
2022-08-14T05:32:27.800Z,93.10
2022-08-14T05:34:59.088Z,93.10
2022-08-14T05:37:29.864Z,93.00
2022-08-14T05:40:00.429Z,93.00
2022-08-14T05:42:34.094Z,92.70
2022-08-14T05:45:04.599Z,92.80
2022-08-14T05:47:39.662Z,92.70
2022-08-14T05:50:17.348Z,92.80
2022-08-14T05:52:49.190Z,92.70
2022-08-14T05:55:22.155Z,92.40
2022-08-14T05:57:57.689Z,92.30
2022-08-14T06:00:31.682Z,91.80
2022-08-14T06:03:08.574Z,91.70
2022-08-14T06:05:39.198Z,91.50
2022-08-14T06:08:31.162Z,91.50
2022-08-14T06:11:05.586Z,91.50
2022-08-14T06:13:44.965Z,91.40
2022-08-14T06:16:17.665Z,91.30
2022-08-14T06:18:48.375Z,91.30
2022-08-14T06:21:17.895Z,91.10
2022-08-14T06:23:48.947Z,91.10
2022-08-14T06:26:20.462Z,90.90
2022-08-14T06:28:52.426Z,90.80
2022-08-14T06:31:22.869Z,90.60
2022-08-14T06:35:02.186Z,90.20
2022-08-14T06:36:40.754Z,90.10
2022-08-14T06:39:10.925Z,89.70
2022-08-14T06:41:59.417Z,89.00
2022-08-14T06:44:30.922Z,89.30
2022-08-14T06:47:01.635Z,88.60
2022-08-14T06:49:30.430Z,88.50
2022-08-14T06:52:00.760Z,88.60
2022-08-14T06:54:31.170Z,88.00
2022-08-14T06:57:00.169Z,86.10
2022-08-14T06:59:28.404Z,85.40
2022-08-14T07:02:17.707Z,85.00
2022-08-14T07:05:05.257Z,84.90
2022-08-14T07:07:39.186Z,84.20
2022-08-14T07:10:16.920Z,84.30
2022-08-14T07:13:01.551Z,83.90
2022-08-14T07:15:32.383Z,83.50
2022-08-14T07:18:02.458Z,82.00
2022-08-14T07:20:32.110Z,81.30
2022-08-14T07:23:08.115Z,82.20
2022-08-14T07:25:38.881Z,82.20
2022-08-14T07:28:13.023Z,80.30
2022-08-14T07:30:50.754Z,80.60
2022-08-14T07:33:28.883Z,81.10
2022-08-14T07:36:00.197Z,80.60
2022-08-14T07:38:35.728Z,80.40
2022-08-14T07:41:11.871Z,80.10
2022-08-14T07:43:55.214Z,78.80
2022-08-14T07:46:28.562Z,77.50
2022-08-14T07:48:59.454Z,77.30
2022-08-14T07:51:34.148Z,77.40
2022-08-14T07:54:04.371Z,77.30
2022-08-14T07:56:43.967Z,76.60
2022-08-14T07:59:18.458Z,75.70
2022-08-14T08:01:51.545Z,75.00
2022-08-14T08:04:27.156Z,74.70
2022-08-14T08:06:55.849Z,74.40
2022-08-14T08:09:31.949Z,72.80
2022-08-14T08:12:05.107Z,72.60
2022-08-14T08:14:56.928Z,72.00
2022-08-14T08:17:28.260Z,72.00
2022-08-14T08:20:03.318Z,71.30
2022-08-14T08:22:32.680Z,70.10
2022-08-14T08:25:02.280Z,69.40
2022-08-14T08:27:30.321Z,69.00
2022-08-14T08:30:10.165Z,68.80
2022-08-14T08:32:41.243Z,68.90
2022-08-14T08:35:20.664Z,68.80
2022-08-14T08:37:48.934Z,68.50
2022-08-14T08:40:35.754Z,65.70
2022-08-14T08:43:19.109Z,66.30
2022-08-14T08:45:55.414Z,64.90
2022-08-14T08:48:31.649Z,63.90
2022-08-14T08:51:06.240Z,64.50
2022-08-14T08:53:36.438Z,64.90
2022-08-14T08:56:06.009Z,64.20
2022-08-14T08:58:38.980Z,63.10
2022-08-14T09:01:07.368Z,63.60
2022-08-14T09:03:43.950Z,64.00
2022-08-14T09:06:54.033Z,63.10
2022-08-14T09:09:00.445Z,61.70
2022-08-14T09:11:30.565Z,62.10
2022-08-14T09:14:00.552Z,61.50
2022-08-14T09:16:28.573Z,60.30
2022-08-14T09:18:56.879Z,60.10
2022-08-14T09:21:31.508Z,58.70
2022-08-14T09:24:28.020Z,59.10
2022-08-14T09:26:50.799Z,59.70
2022-08-14T09:29:22.812Z,59.30
2022-08-14T09:31:57.291Z,59.40
2022-08-14T09:34:58.162Z,59.10
2022-08-14T09:37:38.509Z,58.80
2022-08-14T09:40:20.730Z,57.60
2022-08-14T09:43:03.571Z,56.40
2022-08-14T09:45:39.935Z,56.80
2022-08-14T09:48:29.943Z,56.90
2022-08-14T09:54:19.585Z,55.90
2022-08-14T09:56:57.510Z,55.70
2022-08-14T09:59:32.130Z,55.50
2022-08-14T10:02:02.057Z,55.70
2022-08-14T10:04:34.331Z,54.50
2022-08-14T10:07:06.252Z,54.70
2022-08-14T10:09:59.687Z,53.00
2022-08-14T10:12:44.833Z,54.10
2022-08-14T10:15:23.810Z,54.70
2022-08-14T10:18:09.245Z,54.60
2022-08-14T10:20:44.968Z,53.90
2022-08-14T10:23:17.816Z,53.90
2022-08-14T10:25:50.701Z,53.90
2022-08-14T10:28:39.308Z,54.20
2022-08-14T10:31:25.392Z,53.40
2022-08-14T10:34:12.982Z,51.30
2022-08-14T10:36:47.872Z,52.00
2022-08-14T10:39:19.854Z,51.90
2022-08-14T10:41:49.419Z,51.60
2022-08-14T10:44:29.658Z,51.30
2022-08-14T10:47:39.554Z,51.40
2022-08-14T10:50:00.869Z,51.90
2022-08-14T10:52:31.828Z,48.90
2022-08-14T10:55:14.047Z,50.00
2022-08-14T10:57:51.642Z,48.50
2022-08-14T11:00:29.898Z,49.10
2022-08-14T11:03:09.475Z,49.50
2022-08-14T11:05:43.296Z,49.50
2022-08-14T11:08:13.834Z,49.20
2022-08-14T11:10:46.834Z,49.40
2022-08-14T11:13:23.787Z,49.50
2022-08-14T11:15:53.188Z,48.20
2022-08-14T11:18:30.128Z,48.60
2022-08-14T11:21:02.160Z,47.80
2022-08-14T11:23:38.346Z,47.40
2022-08-14T11:26:10.681Z,46.80
2022-08-14T11:28:46.178Z,48.10
2022-08-14T11:31:15.850Z,47.50
2022-08-14T11:33:50.084Z,47.90
2022-08-14T11:36:18.992Z,47.40
2022-08-14T11:38:48.209Z,47.40
2022-08-14T11:41:17.628Z,47.30
2022-08-14T11:43:58.456Z,46.80
2022-08-14T11:46:30.563Z,46.40
2022-08-14T11:49:08.074Z,46.80
2022-08-14T11:51:54.148Z,46.10
2022-08-14T11:54:34.026Z,46.70
2022-08-14T11:57:04.431Z,46.20
2022-08-14T11:59:34.162Z,45.20
2022-08-14T12:03:01.213Z,44.90
2022-08-14T12:05:04.228Z,44.90
2022-08-14T12:07:33.289Z,45.00
2022-08-14T12:10:26.815Z,44.80
2022-08-14T12:12:55.277Z,44.40
2022-08-14T12:15:32.385Z,43.80
2022-08-14T12:18:02.037Z,44.30
2022-08-14T12:20:36.644Z,44.50
2022-08-14T12:23:06.167Z,44.20
2022-08-14T12:25:36.077Z,44.30
2022-08-14T12:28:27.435Z,44.80
2022-08-14T12:31:00.844Z,45.20
2022-08-14T12:33:33.621Z,45.10
2022-08-14T12:36:06.265Z,45.00
2022-08-14T12:38:36.494Z,44.20
2022-08-14T12:41:11.210Z,44.70
2022-08-14T12:43:51.402Z,44.60
2022-08-14T12:46:28.350Z,44.90
2022-08-14T12:48:59.847Z,44.60
2022-08-14T12:51:31.370Z,44.80
2022-08-14T12:54:01.505Z,44.10
2022-08-14T12:56:33.764Z,44.00
2022-08-14T12:59:03.509Z,43.30
2022-08-14T13:02:00.467Z,43.30
2022-08-14T13:04:22.885Z,43.60
2022-08-14T13:06:53.681Z,43.70
2022-08-14T13:09:27.923Z,44.00
2022-08-14T13:12:32.122Z,44.30
2022-08-14T13:14:58.958Z,44.00
2022-08-14T13:17:28.463Z,43.50
2022-08-14T13:19:58.807Z,42.60
2022-08-14T13:22:33.466Z,42.70
2022-08-14T13:25:12.726Z,42.40
2022-08-14T13:27:46.656Z,43.20
2022-08-14T13:30:23.746Z,43.30
2022-08-14T13:32:53.813Z,42.60
2022-08-14T13:35:22.830Z,42.80
2022-08-14T13:37:53.588Z,42.80
2022-08-14T13:40:26.567Z,42.70
2022-08-14T13:42:57.231Z,41.70
2022-08-14T13:45:33.710Z,40.90
2022-08-14T13:48:33.465Z,39.30
2022-08-14T13:51:08.061Z,36.90
2022-08-14T13:54:06.915Z,35.80
2022-08-14T13:56:42.335Z,35.00
2022-08-14T13:59:11.677Z,34.80
2022-08-14T14:01:45.834Z,33.60
2022-08-14T14:04:20.307Z,32.20
2022-08-14T14:06:50.949Z,32.10
2022-08-14T14:09:27.291Z,31.90
2022-08-14T14:12:36.568Z,32.50
2022-08-14T14:14:57.294Z,33.20
2022-08-14T14:17:31.626Z,33.20
2022-08-14T14:20:00.290Z,32.70
2022-08-14T14:33:45.170Z,30.70
2022-08-14T14:36:14.027Z,30.00
2022-08-14T14:38:45.099Z,29.80
2022-08-14T14:41:17.485Z,29.40
2022-08-14T14:43:51.682Z,28.90
2022-08-14T14:46:21.907Z,29.90
2022-08-14T14:49:14.785Z,29.50
2022-08-14T14:51:50.973Z,29.20
2022-08-14T14:54:31.232Z,29.10
2022-08-14T14:57:02.172Z,29.10
2022-08-14T14:59:33.636Z,28.90
2022-08-14T15:02:08.057Z,29.10
2022-08-14T15:04:43.827Z,29.20
2022-08-14T15:07:12.350Z,29.10
2022-08-14T15:09:41.739Z,28.80
2022-08-14T15:12:28.051Z,29.10
2022-08-14T15:15:08.866Z,28.90
2022-08-14T15:17:40.865Z,29.00
2022-08-14T15:20:17.134Z,29.10
2022-08-14T15:23:00.945Z,29.20
2022-08-14T15:25:37.186Z,29.00
2022-08-14T15:28:11.656Z,29.00
2022-08-14T15:30:42.102Z,29.20
2022-08-14T15:33:10.940Z,29.20
2022-08-14T15:35:46.131Z,29.20
2022-08-14T15:38:17.626Z,29.20
2022-08-14T15:40:51.729Z,29.20
2022-08-14T15:43:27.369Z,29.30
2022-08-14T15:46:00.007Z,29.20
2022-08-14T15:48:29.610Z,29.20
2022-08-14T15:50:59.820Z,29.30
2022-08-14T15:53:31.613Z,29.40
2022-08-14T15:56:00.391Z,29.40
2022-08-14T15:58:29.202Z,29.50
2022-08-14T16:01:31.213Z,29.50
2022-08-14T16:04:04.228Z,29.40
2022-08-14T16:06:37.120Z,29.60
2022-08-14T16:09:10.730Z,29.70
2022-08-14T16:11:43.231Z,29.70
2022-08-14T16:14:21.304Z,29.70
2022-08-14T16:16:59.987Z,29.40
2022-08-14T16:19:31.584Z,29.70
2022-08-14T16:22:59.321Z,29.90
2022-08-14T16:25:03.138Z,29.90
2022-08-14T16:27:33.703Z,30.20
2022-08-14T16:30:10.933Z,30.40
2022-08-14T16:32:54.935Z,30.40
2022-08-14T16:35:26.468Z,30.40
2022-08-14T16:38:19.634Z,30.20
2022-08-14T16:41:23.183Z,30.40
2022-08-14T16:43:59.171Z,30.20
2022-08-14T16:46:31.444Z,30.70
2022-08-14T16:49:01.669Z,30.90
2022-08-14T16:51:36.229Z,31.00
2022-08-14T16:54:34.026Z,30.70
2022-08-14T16:57:14.025Z,31.10
2022-08-14T16:59:57.255Z,31.20
2022-08-14T17:02:41.740Z,31.20
2022-08-14T17:05:18.533Z,31.20
2022-08-14T17:08:41.545Z,31.60
2022-08-14T17:11:10.894Z,31.70
2022-08-14T17:13:58.719Z,32.40
2022-08-14T17:16:35.925Z,32.80
2022-08-14T17:19:09.836Z,32.90
2022-08-14T17:21:47.501Z,33.10
2022-08-14T17:24:57.129Z,33.70
2022-08-14T17:27:09.233Z,33.80
2022-08-14T17:29:44.608Z,34.10
2022-08-14T17:32:56.570Z,34.90
2022-08-14T17:35:26.799Z,35.00
2022-08-14T17:38:33.714Z,36.60
2022-08-14T17:41:22.928Z,36.30
2022-08-14T17:43:54.961Z,36.90
2022-08-14T17:46:37.307Z,37.10
2022-08-14T17:49:17.939Z,37.60
2022-08-14T17:52:01.735Z,37.40
2022-08-14T17:54:34.502Z,37.90
2022-08-14T17:57:10.601Z,38.20
2022-08-14T17:59:45.754Z,38.20
2022-08-14T18:02:18.766Z,38.60
2022-08-14T18:04:51.145Z,39.20
2022-08-14T18:07:59.969Z,39.80
2022-08-14T18:10:51.988Z,40.60
2022-08-14T18:13:01.750Z,41.30
2022-08-14T18:15:35.531Z,41.70
2022-08-14T18:18:08.983Z,42.60
2022-08-14T18:21:41.708Z,43.00
2022-08-14T18:23:28.253Z,43.80
2022-08-14T18:25:59.493Z,44.20
2022-08-14T18:28:51.257Z,44.70
2022-08-14T18:31:43.588Z,45.30
2022-08-14T18:34:31.741Z,45.60
2022-08-14T18:37:14.378Z,46.40
2022-08-14T18:40:03.299Z,47.20
2022-08-14T18:42:44.131Z,47.60
2022-08-14T18:45:16.036Z,48.30
2022-08-14T18:48:14.210Z,48.30
2022-08-14T18:50:52.511Z,48.70
2022-08-14T18:53:24.565Z,49.40
2022-08-14T18:55:56.149Z,49.80
2022-08-14T18:58:34.225Z,50.90
2022-08-14T19:01:06.436Z,51.90
2022-08-14T19:03:58.174Z,51.10
2022-08-14T19:06:48.002Z,51.00
2022-08-14T19:09:52.841Z,51.30
2022-08-14T19:13:00.493Z,53.20
2022-08-14T19:15:31.804Z,52.90
2022-08-14T19:18:10.901Z,53.40
2022-08-14T19:20:54.060Z,53.80
2022-08-14T19:23:42.771Z,54.00
2022-08-14T19:26:36.224Z,54.20
2022-08-14T19:29:24.450Z,54.70
2022-08-14T19:31:59.069Z,55.60
2022-08-14T19:34:40.508Z,56.50
2022-08-14T19:37:46.109Z,56.90
2022-08-14T19:40:19.601Z,57.60
2022-08-14T19:42:49.284Z,58.40
2022-08-14T19:45:18.604Z,58.30
2022-08-14T19:47:50.006Z,58.20
2022-08-14T19:50:37.953Z,59.20
2022-08-14T19:53:17.791Z,59.50
2022-08-14T19:55:59.637Z,59.50
2022-08-14T19:58:54.587Z,59.50
2022-08-14T20:01:37.152Z,60.00
2022-08-14T20:04:45.363Z,60.60
2022-08-14T20:07:00.276Z,60.70
2022-08-14T20:11:05.013Z,61.40
2022-08-14T20:12:35.530Z,62.20
2022-08-14T20:15:15.336Z,62.60
2022-08-14T20:17:52.673Z,63.00
2022-08-14T20:20:31.765Z,63.10
2022-08-14T20:23:11.331Z,64.00
2022-08-14T20:25:45.662Z,65.10
2022-08-14T20:28:35.739Z,65.10
2022-08-14T20:31:15.912Z,65.00
2022-08-14T20:34:06.217Z,64.80
2022-08-14T20:36:38.976Z,65.00
2022-08-14T20:39:15.075Z,66.40
2022-08-14T20:41:51.511Z,66.50
2022-08-14T20:44:41.089Z,67.20
2022-08-14T20:47:16.376Z,67.70
2022-08-14T20:49:45.444Z,68.40
2022-08-14T20:52:20.137Z,67.80
2022-08-14T20:54:51.766Z,68.10
2022-08-14T20:57:21.486Z,68.60
2022-08-14T20:59:53.242Z,68.70
2022-08-14T21:02:46.635Z,69.20
2022-08-14T21:05:33.282Z,69.00
2022-08-14T21:08:09.711Z,69.50
2022-08-14T21:10:51.740Z,69.30
2022-08-14T21:14:08.605Z,69.50
2022-08-14T21:16:33.662Z,69.50
2022-08-14T21:19:00.112Z,69.50
2022-08-14T21:21:41.299Z,70.50
2022-08-14T21:24:38.416Z,70.40
2022-08-14T21:27:12.090Z,71.00
2022-08-14T21:29:55.287Z,71.10
2022-08-14T21:32:50.457Z,71.30
2022-08-14T21:35:28.696Z,71.70
2022-08-14T21:37:57.992Z,71.80
2022-08-14T21:40:40.888Z,72.40
2022-08-14T21:43:17.646Z,72.20
2022-08-14T21:45:53.587Z,72.50
2022-08-14T21:48:25.220Z,72.40
2022-08-14T21:51:01.414Z,72.10
2022-08-14T21:53:59.231Z,73.20
2022-08-14T21:56:37.388Z,72.90
2022-08-14T21:59:10.714Z,73.40
2022-08-14T22:02:01.082Z,73.30
2022-08-14T22:04:33.730Z,73.70
2022-08-14T22:07:07.202Z,73.60
2022-08-14T22:09:37.110Z,74.30
2022-08-14T22:12:07.331Z,74.00
2022-08-14T22:14:43.801Z,74.10
2022-08-14T22:17:17.021Z,74.70
2022-08-14T22:19:47.460Z,75.20
2022-08-14T22:22:25.952Z,75.10
2022-08-14T22:25:00.245Z,75.20
2022-08-14T22:27:31.205Z,75.30
2022-08-14T22:30:01.713Z,75.70
2022-08-14T22:32:56.029Z,76.20
2022-08-14T22:35:19.414Z,76.20
2022-08-14T22:38:36.026Z,76.20
2022-08-14T22:40:58.963Z,75.90
2022-08-14T22:43:35.973Z,76.30
2022-08-14T22:46:06.168Z,76.80
2022-08-14T22:48:45.256Z,76.90
2022-08-14T22:51:16.028Z,77.10
2022-08-14T22:53:49.003Z,77.20
2022-08-14T22:56:22.334Z,77.40
2022-08-14T22:59:00.136Z,77.10
2022-08-14T23:01:57.274Z,77.60
2022-08-14T23:04:35.801Z,77.70
2022-08-14T23:07:21.744Z,77.70
2022-08-14T23:09:55.780Z,78.00
2022-08-14T23:12:29.496Z,78.10
2022-08-14T23:15:00.246Z,78.20
2022-08-14T23:17:39.361Z,78.70
2022-08-14T23:20:19.332Z,79.00
2022-08-14T23:22:51.484Z,79.90
2022-08-14T23:25:44.729Z,80.10
2022-08-14T23:28:34.556Z,80.20
2022-08-14T23:31:08.465Z,79.80
2022-08-14T23:33:42.053Z,80.00
2022-08-14T23:36:31.516Z,80.40
2022-08-14T23:39:10.097Z,80.40
2022-08-14T23:41:46.540Z,80.80
2022-08-14T23:44:23.584Z,81.10
2022-08-14T23:46:57.095Z,81.10
2022-08-14T23:50:00.055Z,81.30
2022-08-14T23:52:55.965Z,81.50
2022-08-14T23:55:11.338Z,81.50
2022-08-14T23:57:44.228Z,81.90
